createdAt,value
2024-01-22T00:02:38.923Z,-2.60
2024-01-22T00:05:24.001Z,-2.60
2024-01-22T00:08:10.724Z,-2.70
2024-01-22T00:16:40.244Z,-2.70
2024-01-22T00:19:25.467Z,-2.70
2024-01-22T00:22:10.435Z,-2.70
2024-01-22T00:24:55.763Z,-2.70
2024-01-22T00:27:41.054Z,-2.70
2024-01-22T00:38:47.436Z,-2.80
2024-01-22T00:41:32.882Z,-2.80
2024-01-22T00:44:18.084Z,-2.80
2024-01-22T00:47:03.353Z,-2.90
2024-01-22T00:49:48.405Z,-2.90
2024-01-22T01:00:43.187Z,-2.90
2024-01-22T01:03:28.249Z,-2.90
2024-01-22T01:06:13.333Z,-2.90
2024-01-22T01:08:58.472Z,-2.90
2024-01-22T01:11:43.511Z,-2.90
2024-01-22T01:23:23.683Z,-2.90
2024-01-22T01:26:08.580Z,-3.00
2024-01-22T01:28:54.848Z,-3.00
2024-01-22T01:31:40.486Z,-2.90
2024-01-22T01:34:25.370Z,-3.00
2024-01-22T01:42:45.151Z,-3.10
2024-01-22T01:45:30.702Z,-3.10
2024-01-22T01:48:15.988Z,-3.10
2024-01-22T01:51:01.721Z,-3.20
2024-01-22T01:53:48.046Z,-3.10
2024-01-22T01:56:33.370Z,-3.20
2024-01-22T02:05:12.159Z,-3.40
2024-01-22T02:07:57.492Z,-3.40
2024-01-22T02:10:47.607Z,-3.40
2024-01-22T02:13:32.646Z,-3.40
2024-01-22T02:16:18.011Z,-3.30
2024-01-22T02:27:35.693Z,-3.30
2024-01-22T02:30:20.751Z,-3.30
2024-01-22T02:33:06.150Z,-3.30
2024-01-22T02:35:51.568Z,-3.30
2024-01-22T02:38:37.025Z,-3.30
2024-01-22T02:41:22.386Z,-3.30
2024-01-22T02:49:31.470Z,-3.40
2024-01-22T02:52:16.743Z,-3.40
2024-01-22T02:55:01.930Z,-3.40
2024-01-22T02:57:47.030Z,-3.40
2024-01-22T03:00:32.238Z,-3.40
2024-01-22T03:03:17.357Z,-3.40
2024-01-22T03:11:25.437Z,-3.50
2024-01-22T03:14:10.664Z,-3.50
2024-01-22T03:16:55.920Z,-3.50
2024-01-22T03:19:41.102Z,-3.40
2024-01-22T03:22:26.125Z,-3.40
2024-01-22T03:25:14.009Z,-3.40
2024-01-22T03:33:18.407Z,-3.50
2024-01-22T03:36:03.969Z,-3.50
2024-01-22T03:38:49.241Z,-3.50
2024-01-22T03:41:34.063Z,-3.60
2024-01-22T03:44:19.099Z,-3.60
2024-01-22T03:47:04.507Z,-3.70
2024-01-22T03:55:11.341Z,-3.70
2024-01-22T03:57:56.694Z,-3.60
2024-01-22T04:00:41.855Z,-3.70
2024-01-22T04:03:27.495Z,-3.60
2024-01-22T04:06:12.676Z,-3.60
2024-01-22T04:08:57.800Z,-3.60
2024-01-22T04:17:05.403Z,-3.60
2024-01-22T04:19:50.741Z,-3.60
2024-01-22T04:22:35.690Z,-3.60
2024-01-22T04:25:21.076Z,-3.60
2024-01-22T04:28:06.618Z,-3.60
2024-01-22T04:38:46.703Z,-3.70
2024-01-22T04:41:32.360Z,-3.70
2024-01-22T04:44:17.494Z,-3.70
2024-01-22T04:47:03.115Z,-3.70
2024-01-22T04:49:48.614Z,-3.60
2024-01-22T05:00:55.298Z,-3.60
2024-01-22T05:03:40.583Z,-3.60
2024-01-22T05:06:26.396Z,-3.60
2024-01-22T05:09:11.770Z,-3.60
2024-01-22T05:11:59.311Z,-3.60
2024-01-22T05:23:07.520Z,-3.60
2024-01-22T05:25:53.091Z,-3.60
2024-01-22T05:28:38.175Z,-3.60
2024-01-22T05:31:29.410Z,-3.60
2024-01-22T05:34:14.808Z,-3.60
2024-01-22T05:45:18.829Z,-3.60
2024-01-22T05:48:05.033Z,-3.50
2024-01-22T05:50:50.390Z,-3.50
2024-01-22T05:53:35.661Z,-3.50
2024-01-22T05:56:26.710Z,-3.50
2024-01-22T05:59:12.087Z,-3.50
2024-01-22T06:07:17.967Z,-3.50
2024-01-22T06:10:08.891Z,-3.50
2024-01-22T06:12:55.989Z,-3.40
2024-01-22T06:15:42.423Z,-3.40
2024-01-22T06:18:29.963Z,-3.40
2024-01-22T06:21:15.569Z,-3.30
2024-01-22T06:29:13.057Z,-3.40
2024-01-22T06:32:04.460Z,-3.30
2024-01-22T06:34:54.335Z,-3.30
2024-01-22T06:37:39.372Z,-3.40
2024-01-22T06:40:24.549Z,-3.40
2024-01-22T06:51:37.892Z,-3.30
2024-01-22T06:54:29.966Z,-3.30
2024-01-22T06:57:15.135Z,-3.30
2024-01-22T07:00:00.245Z,-3.30
2024-01-22T07:02:46.162Z,-3.30
2024-01-22T07:13:48.822Z,-3.30
2024-01-22T07:16:34.040Z,-3.30
2024-01-22T07:19:19.416Z,-3.20
2024-01-22T07:22:07.748Z,-3.20
2024-01-22T07:24:52.790Z,-3.20
2024-01-22T07:36:00.740Z,-3.10
2024-01-22T07:38:46.551Z,-3.10
2024-01-22T07:41:31.651Z,-3.00
2024-01-22T07:44:16.781Z,-3.00
2024-01-22T07:47:04.618Z,-3.00
2024-01-22T07:49:50.046Z,-3.00
2024-01-22T07:57:52.242Z,-2.90
2024-01-22T08:00:37.672Z,-2.80
2024-01-22T08:03:22.901Z,-2.80
2024-01-22T08:06:07.906Z,-2.80
2024-01-22T08:08:53.146Z,-2.80
2024-01-22T08:14:18.271Z,-2.80
2024-01-22T08:17:03.850Z,-2.70
2024-01-22T08:19:49.032Z,-2.70
2024-01-22T08:22:33.898Z,-2.70
2024-01-22T08:25:19.200Z,-2.60
2024-01-22T08:28:04.831Z,-2.60
2024-01-22T08:36:12.442Z,-2.50
2024-01-22T08:38:57.463Z,-2.50
2024-01-22T08:41:42.654Z,-2.60
2024-01-22T08:44:27.522Z,-2.50
2024-01-22T08:47:12.557Z,-2.50
2024-01-22T08:49:57.701Z,-2.40
2024-01-22T08:58:06.436Z,-2.50
2024-01-22T09:00:51.584Z,-2.50
2024-01-22T09:03:37.047Z,-2.40
2024-01-22T09:06:22.293Z,-2.30
2024-01-22T09:09:07.388Z,-2.20
2024-01-22T09:20:18.122Z,-2.20
2024-01-22T09:23:03.517Z,-2.20
2024-01-22T09:25:48.944Z,-2.20
2024-01-22T09:28:33.947Z,-2.20
2024-01-22T09:31:19.325Z,-2.30
2024-01-22T09:34:04.566Z,-2.20
2024-01-22T09:42:17.150Z,-2.00
2024-01-22T09:45:04.643Z,-2.10
2024-01-22T09:47:50.177Z,-2.10
2024-01-22T09:50:35.215Z,-2.10
2024-01-22T09:53:21.317Z,-2.10
2024-01-22T10:04:45.162Z,-2.00
2024-01-22T10:07:30.658Z,-2.00
2024-01-22T10:10:18.156Z,-2.00
2024-01-22T10:13:06.840Z,-1.90
2024-01-22T10:15:51.881Z,-1.90
2024-01-22T10:27:14.838Z,-1.80
2024-01-22T10:30:14.067Z,-1.80
2024-01-22T10:33:18.804Z,-1.90
2024-01-22T10:36:24.233Z,-1.80
2024-01-22T10:39:09.475Z,-1.60
2024-01-22T10:45:15.536Z,-1.50
2024-01-22T10:48:06.519Z,-1.40
2024-01-22T10:51:00.367Z,-1.40
2024-01-22T10:53:47.452Z,-1.40
2024-01-22T10:56:38.620Z,-1.50
2024-01-22T11:05:15.817Z,-1.40
2024-01-22T11:08:13.499Z,-1.30
2024-01-22T11:11:00.085Z,-1.30
2024-01-22T11:13:52.068Z,-1.30
2024-01-22T11:16:38.364Z,-1.20
2024-01-22T11:28:07.845Z,-1.20
2024-01-22T11:30:52.850Z,-1.20
2024-01-22T11:33:38.369Z,-1.20
2024-01-22T11:37:04.679Z,-1.20
2024-01-22T11:39:49.919Z,-1.30
2024-01-22T11:46:17.728Z,-1.30
2024-01-22T11:49:09.721Z,-1.20
2024-01-22T11:51:55.189Z,-1.20
2024-01-22T11:55:07.302Z,-1.20
2024-01-22T11:57:52.529Z,-1.10
2024-01-22T12:03:31.239Z,-1.20
2024-01-22T12:06:16.718Z,-1.20
2024-01-22T12:09:01.747Z,-1.20
2024-01-22T12:11:53.838Z,-1.20
2024-01-22T12:14:38.876Z,-1.20
2024-01-22T12:17:25.120Z,-1.20
2024-01-22T12:25:41.982Z,-1.10
2024-01-22T12:28:27.678Z,-1.20
2024-01-22T12:31:13.224Z,-1.20
2024-01-22T12:34:11.304Z,-1.20
2024-01-22T12:36:56.990Z,-1.30
2024-01-22T12:43:20.210Z,-1.30
2024-01-22T12:46:17.471Z,-1.30
2024-01-22T12:49:03.023Z,-1.30
2024-01-22T12:51:57.234Z,-1.30
2024-01-22T12:54:42.459Z,-1.40
2024-01-22T12:57:29.157Z,-1.40
2024-01-22T13:05:02.003Z,-1.50
2024-01-22T13:07:47.172Z,-1.40
2024-01-22T13:10:32.714Z,-1.50
2024-01-22T13:13:18.795Z,-1.50
2024-01-22T13:16:13.991Z,-1.50
2024-01-22T13:19:02.864Z,-1.50
2024-01-22T13:27:11.633Z,-1.50
2024-01-22T13:29:57.292Z,-1.60
2024-01-22T13:32:46.026Z,-1.60
2024-01-22T13:35:32.929Z,-1.60
2024-01-22T13:38:18.004Z,-1.60
2024-01-22T13:49:07.713Z,-1.70
2024-01-22T13:51:57.617Z,-1.70
2024-01-22T13:54:43.005Z,-1.70
2024-01-22T13:57:30.237Z,-1.80
2024-01-22T14:00:16.301Z,-1.90
2024-01-22T14:06:49.258Z,-2.00
2024-01-22T14:09:34.431Z,-2.10
2024-01-22T14:12:19.508Z,-2.10
2024-01-22T14:15:05.682Z,-2.10
2024-01-22T14:17:50.785Z,-2.10
2024-01-22T14:23:14.942Z,-2.20
2024-01-22T14:26:00.198Z,-2.20
2024-01-22T14:28:45.331Z,-2.20
2024-01-22T14:31:31.023Z,-2.20
2024-01-22T14:34:16.758Z,-2.20
2024-01-22T14:37:02.809Z,-2.30
2024-01-22T14:45:28.951Z,-2.30
2024-01-22T14:48:14.652Z,-2.30
2024-01-22T14:51:02.457Z,-2.30
2024-01-22T14:53:47.541Z,-2.30
2024-01-22T14:56:33.071Z,-2.30
2024-01-22T15:06:59.851Z,-2.30
2024-01-22T15:09:45.004Z,-2.40
2024-01-22T15:12:30.190Z,-2.40
2024-01-22T15:15:15.837Z,-2.40
2024-01-22T15:18:03.588Z,-2.40
2024-01-22T15:29:11.666Z,-2.40
2024-01-22T15:31:57.145Z,-2.40
2024-01-22T15:34:42.324Z,-2.50
2024-01-22T15:37:27.584Z,-2.50
2024-01-22T15:40:13.396Z,-2.50
2024-01-22T15:51:15.949Z,-2.50
2024-01-22T15:54:01.978Z,-2.50
2024-01-22T15:56:50.915Z,-2.50
2024-01-22T15:59:39.029Z,-2.50
2024-01-22T16:02:24.447Z,-2.50
2024-01-22T16:07:56.462Z,-2.60
2024-01-22T16:10:41.743Z,-2.60
2024-01-22T16:13:26.727Z,-2.60
2024-01-22T16:16:13.008Z,-2.60
2024-01-22T16:18:58.198Z,-2.60
2024-01-22T16:29:46.303Z,-2.60
2024-01-22T16:32:32.072Z,-2.50
2024-01-22T16:35:17.170Z,-2.60
2024-01-22T16:38:02.514Z,-2.50
2024-01-22T16:40:47.619Z,-2.50
2024-01-22T16:43:32.710Z,-2.50
2024-01-22T16:51:39.615Z,-2.40
2024-01-22T16:54:24.741Z,-2.40
2024-01-22T16:57:10.200Z,-2.40
2024-01-22T16:59:55.243Z,-2.40
2024-01-22T17:02:40.467Z,-2.30
2024-01-22T17:05:25.953Z,-2.30
2024-01-22T17:13:51.649Z,-2.20
2024-01-22T17:16:37.641Z,-2.20
2024-01-22T17:19:23.003Z,-2.10
2024-01-22T17:22:08.587Z,-2.10
2024-01-22T17:24:56.962Z,-2.10
2024-01-22T17:35:47.414Z,-2.10
2024-01-22T17:38:37.399Z,-2.00
2024-01-22T17:41:23.616Z,-2.00
2024-01-22T17:44:08.809Z,-2.00
2024-01-22T17:46:56.286Z,-2.00
2024-01-22T17:49:42.048Z,-2.00
2024-01-22T17:57:49.682Z,-2.00
2024-01-22T18:00:35.396Z,-2.00
2024-01-22T18:03:20.560Z,-2.00
2024-01-22T18:06:06.040Z,-2.10
2024-01-22T18:08:51.077Z,-2.00
2024-01-22T18:11:36.216Z,-2.00
2024-01-22T18:19:45.171Z,-2.10
2024-01-22T18:22:32.785Z,-2.10
2024-01-22T18:25:20.879Z,-2.10
2024-01-22T18:28:06.137Z,-2.10
2024-01-22T18:30:54.406Z,-2.10
2024-01-22T18:42:01.381Z,-2.10
2024-01-22T18:44:47.157Z,-2.20
2024-01-22T18:47:32.194Z,-2.10
2024-01-22T18:50:17.178Z,-2.10
2024-01-22T18:53:03.144Z,-2.10
2024-01-22T18:55:48.239Z,-2.20
2024-01-22T19:03:51.396Z,-2.20
2024-01-22T19:06:54.636Z,-2.10
2024-01-22T19:09:39.904Z,-2.10
2024-01-22T19:12:25.176Z,-2.10
2024-01-22T19:15:12.107Z,-2.10
2024-01-22T19:25:47.001Z,-2.00
2024-01-22T19:28:31.924Z,-2.00
2024-01-22T19:31:17.074Z,-1.90
2024-01-22T19:34:02.204Z,-1.90
2024-01-22T19:36:52.928Z,-1.90
2024-01-22T19:48:04.157Z,-1.80
2024-01-22T19:50:49.220Z,-1.90
2024-01-22T19:53:37.485Z,-1.80
2024-01-22T19:56:22.341Z,-1.80
2024-01-22T19:59:07.415Z,-1.80
2024-01-22T20:01:52.895Z,-1.80
2024-01-22T20:09:57.643Z,-1.80
2024-01-22T20:12:43.342Z,-1.70
2024-01-22T20:15:29.119Z,-1.70
2024-01-22T20:18:14.604Z,-1.70
2024-01-22T20:20:59.763Z,-1.60
2024-01-22T20:32:07.219Z,-1.50
2024-01-22T20:34:55.975Z,-1.40
2024-01-22T20:37:41.794Z,-1.50
2024-01-22T20:40:27.657Z,-1.40
2024-01-22T20:43:12.799Z,-1.40
2024-01-22T20:51:20.137Z,-1.40
2024-01-22T20:54:05.677Z,-1.40
2024-01-22T20:56:51.336Z,-1.30
2024-01-22T20:59:39.441Z,-1.40
2024-01-22T21:02:25.248Z,-1.30
2024-01-22T21:13:33.105Z,-1.30
2024-01-22T21:16:18.582Z,-1.30
2024-01-22T21:19:04.335Z,-1.30
2024-01-22T21:21:49.589Z,-1.20
2024-01-22T21:24:36.718Z,-1.20
2024-01-22T21:33:00.209Z,-1.20
2024-01-22T21:35:44.980Z,-1.10
2024-01-22T21:38:30.331Z,-1.20
2024-01-22T21:41:15.276Z,-1.10
2024-01-22T21:44:00.249Z,-1.10
2024-01-22T21:54:47.177Z,-1.10
2024-01-22T21:57:38.221Z,-1.10
2024-01-22T22:00:23.479Z,-1.10
2024-01-22T22:03:08.825Z,-1.00
2024-01-22T22:05:53.964Z,-1.00
2024-01-22T22:12:29.231Z,-1.00
2024-01-22T22:15:14.634Z,-1.00
2024-01-22T22:18:00.313Z,-1.00
2024-01-22T22:20:45.894Z,-0.90
2024-01-22T22:23:33.441Z,-0.90
2024-01-22T22:34:36.220Z,-0.90
2024-01-22T22:37:21.175Z,-0.90
2024-01-22T22:40:06.993Z,-0.80
2024-01-22T22:42:52.227Z,-0.80
2024-01-22T22:45:37.510Z,-0.80
2024-01-22T22:56:19.484Z,-0.80
2024-01-22T22:59:04.236Z,-0.80
2024-01-22T23:01:49.433Z,-0.80
2024-01-22T23:04:34.530Z,-0.80
2024-01-22T23:07:19.485Z,-0.80
2024-01-22T23:18:43.281Z,-0.70
2024-01-22T23:21:29.437Z,-0.70
2024-01-22T23:24:14.449Z,-0.70
2024-01-22T23:26:59.393Z,-0.70
2024-01-22T23:29:44.436Z,-0.70
2024-01-22T23:36:12.326Z,-0.70
2024-01-22T23:39:03.477Z,-0.70
2024-01-22T23:41:48.602Z,-0.70
2024-01-22T23:44:34.457Z,-0.70
2024-01-22T23:47:20.569Z,-0.60
2024-01-22T23:58:28.213Z,-0.60
